メインページ
METAR-TAF:

METAR-TAF

空港 :

ウラジオストク, ロシア

ウラジオストク国際空港

緯度: 43-07N, 経度: 131-56E, 海抜: 184m

現時点の気象観測

当レポートは19分前の12:00(UTC)に作成
の風 2kt
気温 -13°C
湿度 47%
気圧 1031 hPa
視程10km以上

METAR: UHWW 241200Z 35001MPS 9999 NSC M13/M22 Q1031 R25L/0///70 NOSIG RMK QFE772

時間: 22:19 (12:19 UTC)

予報

当レポートは1時間19分前の11:00(UTC)に作成
予報は24日の 12時(UTC)から 25日の 12時(UTC)まで有効
の風 6kt
視程10km以上
25日の 0000時(UTC)から
南/南東の風 6kt
視程10km以上
高度3000ftの雲は散在している

TAF: UHWW 241100Z 2412/2512 01003MPS 9999 NSC FM250000 15003MPS 9999 SCT030

4,000以上の空港の気象観測と天気予報(METAR報とTAF報)

利用可能な観測所は地図上に黄色い丸と赤い丸で示す。

丸の上にカーソルを重ねると観測所名を参照できる。

次にクリックすると気象観測と天気予報を参照できる。

マップの切り替え:黒色「×」印の緑ボタンをクリックして拡大、「-」印の緑ボタンをクリックして縮小、緑色の三角印をクリックして隣りの地図に切り替え


METAR-TAF: